sensor_id;sensor_type;location;lat;lon;timestamp;P1;durP1;ratioP1;P2;durP2;ratioP2
47812;SDS011;34221;45.296;9.516;2023-07-29T00:00:06;0.70;;;0.70;;
47812;SDS011;34221;45.296;9.516;2023-07-29T00:00:27;0.80;;;0.70;;
47812;SDS011;34221;45.296;9.516;2023-07-29T00:00:42;0.73;;;0.70;;
47812;SDS011;34221;45.296;9.516;2023-07-29T00:00:57;0.80;;;0.70;;
47812;SDS011;34221;45.296;9.516;2023-07-29T00:01:14;0.75;;;0.70;;
47812;SDS011;34221;45.296;9.516;2023-07-29T00:01:29;0.90;;;0.80;;
47812;SDS011;34221;45.296;9.516;2023-07-29T00:01:44;0.82;;;0.70;;
47812;SDS011;34221;45.296;9.516;2023-07-29T00:01:59;1.60;;;0.88;;
47812;SDS011;34221;45.296;9.516;2023-07-29T00:02:14;1.98;;;1.10;;
47812;SDS011;34221;45.296;9.516;2023-07-29T00:02:29;1.20;;;1.00;;
47812;SDS011;34221;45.296;9.516;2023-07-29T00:02:45;0.90;;;0.80;;
47812;SDS011;34221;45.296;9.516;2023-07-29T00:03:00;0.90;;;0.80;;
47812;SDS011;34221;45.296;9.516;2023-07-29T00:03:15;1.25;;;0.85;;
47812;SDS011;34221;45.296;9.516;2023-07-29T00:03:30;1.13;;;0.80;;
47812;SDS011;34221;45.296;9.516;2023-07-29T00:03:46;1.00;;;0.80;;
47812;SDS011;34221;45.296;9.516;2023-07-29T00:04:01;1.27;;;0.85;;
47812;SDS011;34221;45.296;9.516;2023-07-29T00:04:16;1.13;;;0.77;;
47812;SDS011;34221;45.296;9.516;2023-07-29T00:04:31;0.80;;;0.70;;
47812;SDS011;34221;45.296;9.516;2023-07-29T00:04:46;1.20;;;0.77;;
47812;SDS011;34221;45.296;9.516;2023-07-29T00:05:01;1.27;;;0.73;;
47812;SDS011;34221;45.296;9.516;2023-07-29T00:05:16;1.02;;;0.63;;
47812;SDS011;34221;45.296;9.516;2023-07-29T00:05:31;1.20;;;0.80;;
47812;SDS011;34221;45.296;9.516;2023-07-29T00:05:46;0.98;;;0.77;;
47812;SDS011;34221;45.296;9.516;2023-07-29T00:06:02;0.90;;;0.80;;
47812;SDS011;34221;45.296;9.516;2023-07-29T00:06:17;1.80;;;0.75;;
47812;SDS011;34221;45.296;9.516;2023-07-29T00:06:32;1.52;;;0.60;;
47812;SDS011;34221;45.296;9.516;2023-07-29T00:06:47;0.77;;;0.70;;
47812;SDS011;34221;45.296;9.516;2023-07-29T00:07:02;0.82;;;0.70;;
47812;SDS011;34221;45.296;9.516;2023-07-29T00:07:17;0.75;;;0.70;;
47812;SDS011;34221;45.296;9.516;2023-07-29T00:07:32;0.73;;;0.63;;
47812;SDS011;34221;45.296;9.516;2023-07-29T00:07:46;0.75;;;0.65;;
47812;SDS011;34221;45.296;9.516;2023-07-29T00:08:01;0.98;;;0.70;;
47812;SDS011;34221;45.296;9.516;2023-07-29T00:08:16;1.02;;;0.73;;
47812;SDS011;34221;45.296;9.516;2023-07-29T00:08:31;0.63;;;0.55;;
47812;SDS011;34221;45.296;9.516;2023-07-29T00:08:46;0.52;;;0.52;;
47812;SDS011;34221;45.296;9.516;2023-07-29T00:09:02;0.90;;;0.70;;
47812;SDS011;34221;45.296;9.516;2023-07-29T00:09:17;1.15;;;0.70;;
47812;SDS011;34221;45.296;9.516;2023-07-29T00:09:32;1.30;;;0.77;;
47812;SDS011;34221;45.296;9.516;2023-07-29T00:09:47;1.00;;;0.80;;
47812;SDS011;34221;45.296;9.516;2023-07-29T00:10:02;0.93;;;0.80;;
47812;SDS011;34221;45.296;9.516;2023-07-29T00:10:17;0.88;;;0.70;;
47812;SDS011;34221;45.296;9.516;2023-07-29T00:10:34;0.70;;;0.70;;
47812;SDS011;34221;45.296;9.516;2023-07-29T00:10:51;0.75;;;0.60;;
47812;SDS011;34221;45.296;9.516;2023-07-29T00:11:06;0.80;;;0.65;;
47812;SDS011;34221;45.296;9.516;2023-07-29T00:11:21;0.90;;;0.60;;
47812;SDS011;34221;45.296;9.516;2023-07-29T00:11:36;1.20;;;0.70;;
47812;SDS011;34221;45.296;9.516;2023-07-29T00:11:51;1.40;;;0.80;;
47812;SDS011;34221;45.296;9.516;2023-07-29T00:12:06;1.00;;;0.75;;
47812;SDS011;34221;45.296;9.516;2023-07-29T00:12:21;0.82;;;0.70;;
47812;SDS011;34221;45.296;9.516;2023-07-29T00:12:36;0.80;;;0.68;;
47812;SDS011;34221;45.296;9.516;2023-07-29T00:12:51;0.90;;;0.65;;
47812;SDS011;34221;45.296;9.516;2023-07-29T00:13:06;1.02;;;0.70;;
47812;SDS011;34221;45.296;9.516;2023-07-29T00:13:21;0.82;;;0.63;;
47812;SDS011;34221;45.296;9.516;2023-07-29T00:13:36;0.73;;;0.60;;
47812;SDS011;34221;45.296;9.516;2023-07-29T00:13:51;0.73;;;0.60;;
47812;SDS011;34221;45.296;9.516;2023-07-29T00:14:07;0.57;;;0.50;;
47812;SDS011;34221;45.296;9.516;2023-07-29T00:14:22;0.50;;;0.43;;
47812;SDS011;34221;45.296;9.516;2023-07-29T00:14:37;0.70;;;0.50;;
47812;SDS011;34221;45.296;9.516;2023-07-29T00:14:51;0.77;;;0.60;;
47812;SDS011;34221;45.296;9.516;2023-07-29T00:15:07;0.80;;;0.70;;
47812;SDS011;34221;45.296;9.516;2023-07-29T00:15:22;0.90;;;0.70;;
47812;SDS011;34221;45.296;9.516;2023-07-29T00:15:37;0.88;;;0.65;;
47812;SDS011;34221;45.296;9.516;2023-07-29T00:15:55;0.70;;;0.70;;
47812;SDS011;34221;45.296;9.516;2023-07-29T00:16:10;0.77;;;0.70;;
47812;SDS011;34221;45.296;9.516;2023-07-29T00:16:25;0.80;;;0.60;;
47812;SDS011;34221;45.296;9.516;2023-07-29T00:16:40;0.65;;;0.60;;
47812;SDS011;34221;45.296;9.516;2023-07-29T00:16:56;0.63;;;0.63;;
47812;SDS011;34221;45.296;9.516;2023-07-29T00:17:11;0.77;;;0.70;;
47812;SDS011;34221;45.296;9.516;2023-07-29T00:17:26;0.75;;;0.65;;
47812;SDS011;34221;45.296;9.516;2023-07-29T00:17:41;1.00;;;0.60;;
47812;SDS011;34221;45.296;9.516;2023-07-29T00:17:56;1.13;;;0.68;;
47812;SDS011;34221;45.296;9.516;2023-07-29T00:18:11;0.93;;;0.70;;
47812;SDS011;34221;45.296;9.516;2023-07-29T00:18:26;0.82;;;0.70;;
47812;SDS011;34221;45.296;9.516;2023-07-29T00:18:42;0.60;;;0.60;;
47812;SDS011;34221;45.296;9.516;2023-07-29T00:18:57;0.70;;;0.68;;
47812;SDS011;34221;45.296;9.516;2023-07-29T00:19:12;0.80;;;0.70;;
47812;SDS011;34221;45.296;9.516;2023-07-29T00:19:27;0.50;;;0.50;;
47812;SDS011;34221;45.296;9.516;2023-07-29T00:19:42;0.50;;;0.50;;
47812;SDS011;34221;45.296;9.516;2023-07-29T00:19:57;0.63;;;0.60;;
47812;SDS011;34221;45.296;9.516;2023-07-29T00:20:12;0.88;;;0.60;;
47812;SDS011;34221;45.296;9.516;2023-07-29T00:20:27;1.00;;;0.70;;
47812;SDS011;34221;45.296;9.516;2023-07-29T00:20:42;0.93;;;0.70;;
47812;SDS011;34221;45.296;9.516;2023-07-29T00:20:57;0.98;;;0.70;;
47812;SDS011;34221;45.296;9.516;2023-07-29T00:21:12;0.80;;;0.68;;
47812;SDS011;34221;45.296;9.516;2023-07-29T00:21:27;0.60;;;0.55;;
47812;SDS011;34221;45.296;9.516;2023-07-29T00:21:42;0.68;;;0.52;;
47812;SDS011;34221;45.296;9.516;2023-07-29T00:21:57;0.70;;;0.57;;
47812;SDS011;34221;45.296;9.516;2023-07-29T00:22:12;0.80;;;0.60;;
47812;SDS011;34221;45.296;9.516;2023-07-29T00:22:27;0.95;;;0.70;;
47812;SDS011;34221;45.296;9.516;2023-07-29T00:22:42;0.73;;;0.63;;
47812;SDS011;34221;45.296;9.516;2023-07-29T00:22:56;0.68;;;0.45;;
47812;SDS011;34221;45.296;9.516;2023-07-29T00:23:13;0.77;;;0.60;;
47812;SDS011;34221;45.296;9.516;2023-07-29T00:23:28;0.80;;;0.75;;
47812;SDS011;34221;45.296;9.516;2023-07-29T00:23:43;0.90;;;0.70;;
47812;SDS011;34221;45.296;9.516;2023-07-29T00:23:59;0.80;;;0.70;;
47812;SDS011;34221;45.296;9.516;2023-07-29T00:24:15;0.90;;;0.80;;
47812;SDS011;34221;45.296;9.516;2023-07-29T00:24:30;1.23;;;0.90;;
47812;SDS011;34221;45.296;9.516;2023-07-29T00:24:45;0.90;;;0.73;;
47812;SDS011;34221;45.296;9.516;2023-07-29T00:25:09;0.95;;;0.77;;
47812;SDS011;34221;45.296;9.516;2023-07-29T00:25:24;1.00;;;0.90;;
47812;SDS011;34221;45.296;9.516;2023-07-29T00:25:39;0.85;;;0.77;;
47812;SDS011;34221;45.296;9.516;2023-07-29T00:25:53;0.90;;;0.73;;
47812;SDS011;34221;45.296;9.516;2023-07-29T00:26:08;0.93;;;0.80;;
47812;SDS011;34221;45.296;9.516;2023-07-29T00:26:23;0.80;;;0.68;;
47812;SDS011;34221;45.296;9.516;2023-07-29T00:26:40;0.77;;;0.60;;
47812;SDS011;34221;45.296;9.516;2023-07-29T00:26:55;0.93;;;0.75;;
47812;SDS011;34221;45.296;9.516;2023-07-29T00:27:10;0.90;;;0.70;;
47812;SDS011;34221;45.296;9.516;2023-07-29T00:27:25;0.80;;;0.75;;
47812;SDS011;34221;45.296;9.516;2023-07-29T00:27:40;1.10;;;0.80;;
47812;SDS011;34221;45.296;9.516;2023-07-29T00:27:56;0.90;;;0.70;;
47812;SDS011;34221;45.296;9.516;2023-07-29T00:28:12;0.70;;;0.70;;
47812;SDS011;34221;45.296;9.516;2023-07-29T00:28:27;1.00;;;0.88;;
47812;SDS011;34221;45.296;9.516;2023-07-29T00:28:42;1.38;;;0.90;;
47812;SDS011;34221;45.296;9.516;2023-07-29T00:28:57;1.20;;;0.73;;
47812;SDS011;34221;45.296;9.516;2023-07-29T00:29:12;0.73;;;0.60;;
47812;SDS011;34221;45.296;9.516;2023-07-29T00:29:27;0.77;;;0.70;;
47812;SDS011;34221;45.296;9.516;2023-07-29T00:29:42;0.73;;;0.65;;
47812;SDS011;34221;45.296;9.516;2023-07-29T00:29:57;0.60;;;0.60;;
47812;SDS011;34221;45.296;9.516;2023-07-29T00:30:12;0.55;;;0.55;;
47812;SDS011;34221;45.296;9.516;2023-07-29T00:30:27;0.68;;;0.65;;
47812;SDS011;34221;45.296;9.516;2023-07-29T00:30:42;1.08;;;0.77;;
47812;SDS011;34221;45.296;9.516;2023-07-29T00:30:57;0.82;;;0.65;;
47812;SDS011;34221;45.296;9.516;2023-07-29T00:31:12;0.68;;;0.52;;
47812;SDS011;34221;45.296;9.516;2023-07-29T00:31:27;1.00;;;0.60;;
47812;SDS011;34221;45.296;9.516;2023-07-29T00:31:42;0.82;;;0.60;;
47812;SDS011;34221;45.296;9.516;2023-07-29T00:31:57;0.63;;;0.60;;
47812;SDS011;34221;45.296;9.516;2023-07-29T00:32:12;0.60;;;0.60;;
47812;SDS011;34221;45.296;9.516;2023-07-29T00:32:28;0.47;;;0.47;;
47812;SDS011;34221;45.296;9.516;2023-07-29T00:32:44;0.50;;;0.45;;
47812;SDS011;34221;45.296;9.516;2023-07-29T00:33:00;0.50;;;0.50;;
47812;SDS011;34221;45.296;9.516;2023-07-29T00:33:15;0.52;;;0.52;;
47812;SDS011;34221;45.296;9.516;2023-07-29T00:33:30;0.70;;;0.70;;
47812;SDS011;34221;45.296;9.516;2023-07-29T00:33:45;0.95;;;0.70;;
47812;SDS011;34221;45.296;9.516;2023-07-29T00:34:00;1.08;;;0.70;;
47812;SDS011;34221;45.296;9.516;2023-07-29T00:34:15;0.82;;;0.60;;
47812;SDS011;34221;45.296;9.516;2023-07-29T00:34:33;0.85;;;0.63;;
47812;SDS011;34221;45.296;9.516;2023-07-29T00:34:48;0.88;;;0.65;;
47812;SDS011;34221;45.296;9.516;2023-07-29T00:35:03;0.85;;;0.60;;
47812;SDS011;34221;45.296;9.516;2023-07-29T00:35:19;0.85;;;0.70;;
47812;SDS011;34221;45.296;9.516;2023-07-29T00:35:34;0.80;;;0.70;;
47812;SDS011;34221;45.296;9.516;2023-07-29T00:35:49;0.77;;;0.68;;
47812;SDS011;34221;45.296;9.516;2023-07-29T00:36:04;0.60;;;0.60;;
47812;SDS011;34221;45.296;9.516;2023-07-29T00:36:19;0.65;;;0.63;;
47812;SDS011;34221;45.296;9.516;2023-07-29T00:36:34;0.90;;;0.70;;
47812;SDS011;34221;45.296;9.516;2023-07-29T00:36:50;1.00;;;0.70;;
47812;SDS011;34221;45.296;9.516;2023-07-29T00:37:05;1.02;;;0.80;;
47812;SDS011;34221;45.296;9.516;2023-07-29T00:37:20;1.08;;;0.82;;
47812;SDS011;34221;45.296;9.516;2023-07-29T00:37:35;1.05;;;0.70;;
47812;SDS011;34221;45.296;9.516;2023-07-29T00:37:52;0.68;;;0.50;;
47812;SDS011;34221;45.296;9.516;2023-07-29T00:38:07;0.63;;;0.50;;
47812;SDS011;34221;45.296;9.516;2023-07-29T00:38:22;0.98;;;0.60;;
47812;SDS011;34221;45.296;9.516;2023-07-29T00:38:37;1.10;;;0.70;;
47812;SDS011;34221;45.296;9.516;2023-07-29T00:38:52;0.93;;;0.70;;
47812;SDS011;34221;45.296;9.516;2023-07-29T00:39:10;0.60;;;0.60;;
47812;SDS011;34221;45.296;9.516;2023-07-29T00:39:25;0.50;;;0.50;;
47812;SDS011;34221;45.296;9.516;2023-07-29T00:39:41;0.70;;;0.60;;
47812;SDS011;34221;45.296;9.516;2023-07-29T00:39:57;0.85;;;0.70;;
47812;SDS011;34221;45.296;9.516;2023-07-29T00:40:14;0.98;;;0.60;;
47812;SDS011;34221;45.296;9.516;2023-07-29T00:40:35;1.02;;;0.70;;
47812;SDS011;34221;45.296;9.516;2023-07-29T00:40:51;0.60;;;0.60;;
47812;SDS011;34221;45.296;9.516;2023-07-29T00:41:06;0.65;;;0.65;;
47812;SDS011;34221;45.296;9.516;2023-07-29T00:41:22;0.80;;;0.68;;
47812;SDS011;34221;45.296;9.516;2023-07-29T00:41:39;0.93;;;0.63;;
47812;SDS011;34221;45.296;9.516;2023-07-29T00:41:54;0.70;;;0.60;;
47812;SDS011;34221;45.296;9.516;2023-07-29T00:42:10;0.70;;;0.65;;
47812;SDS011;34221;45.296;9.516;2023-07-29T00:42:25;1.27;;;0.87;;
47812;SDS011;34221;45.296;9.516;2023-07-29T00:42:40;1.40;;;0.90;;
47812;SDS011;34221;45.296;9.516;2023-07-29T00:42:57;1.13;;;0.80;;
47812;SDS011;34221;45.296;9.516;2023-07-29T00:43:12;1.25;;;0.80;;
47812;SDS011;34221;45.296;9.516;2023-07-29T00:43:27;1.35;;;0.88;;
47812;SDS011;34221;45.296;9.516;2023-07-29T00:43:42;1.17;;;0.80;;
47812;SDS011;34221;45.296;9.516;2023-07-29T00:43:57;0.88;;;0.68;;
47812;SDS011;34221;45.296;9.516;2023-07-29T00:44:12;1.00;;;0.70;;
47812;SDS011;34221;45.296;9.516;2023-07-29T00:44:27;1.13;;;0.70;;
47812;SDS011;34221;45.296;9.516;2023-07-29T00:44:42;0.77;;;0.60;;
47812;SDS011;34221;45.296;9.516;2023-07-29T00:44:57;0.75;;;0.52;;
47812;SDS011;34221;45.296;9.516;2023-07-29T00:45:12;0.85;;;0.65;;
47812;SDS011;34221;45.296;9.516;2023-07-29T00:45:27;0.73;;;0.65;;
47812;SDS011;34221;45.296;9.516;2023-07-29T00:45:44;0.70;;;0.60;;
47812;SDS011;34221;45.296;9.516;2023-07-29T00:45:59;0.88;;;0.70;;
47812;SDS011;34221;45.296;9.516;2023-07-29T00:46:15;0.90;;;0.70;;
47812;SDS011;34221;45.296;9.516;2023-07-29T00:46:32;1.00;;;0.70;;
47812;SDS011;34221;45.296;9.516;2023-07-29T00:46:52;0.63;;;0.53;;
47812;SDS011;34221;45.296;9.516;2023-07-29T00:47:08;0.88;;;0.68;;
47812;SDS011;34221;45.296;9.516;2023-07-29T00:47:24;0.73;;;0.60;;
47812;SDS011;34221;45.296;9.516;2023-07-29T00:47:40;0.60;;;0.52;;
47812;SDS011;34221;45.296;9.516;2023-07-29T00:47:58;0.60;;;0.55;;
47812;SDS011;34221;45.296;9.516;2023-07-29T00:48:14;0.52;;;0.50;;
47812;SDS011;34221;45.296;9.516;2023-07-29T00:48:29;0.80;;;0.60;;
47812;SDS011;34221;45.296;9.516;2023-07-29T00:48:44;0.88;;;0.70;;
47812;SDS011;34221;45.296;9.516;2023-07-29T00:48:59;0.70;;;0.70;;
47812;SDS011;34221;45.296;9.516;2023-07-29T00:49:14;0.77;;;0.60;;
47812;SDS011;34221;45.296;9.516;2023-07-29T00:49:29;0.70;;;0.60;;
47812;SDS011;34221;45.296;9.516;2023-07-29T00:49:45;0.65;;;0.60;;
47812;SDS011;34221;45.296;9.516;2023-07-29T00:50:01;0.75;;;0.60;;
47812;SDS011;34221;45.296;9.516;2023-07-29T00:50:18;0.70;;;0.55;;
47812;SDS011;34221;45.296;9.516;2023-07-29T00:50:33;0.68;;;0.57;;
47812;SDS011;34221;45.296;9.516;2023-07-29T00:50:49;0.50;;;0.50;;
47812;SDS011;34221;45.296;9.516;2023-07-29T00:51:04;0.50;;;0.50;;
47812;SDS011;34221;45.296;9.516;2023-07-29T00:51:20;0.50;;;0.50;;
47812;SDS011;34221;45.296;9.516;2023-07-29T00:51:35;0.80;;;0.57;;
47812;SDS011;34221;45.296;9.516;2023-07-29T00:51:50;0.70;;;0.50;;
47812;SDS011;34221;45.296;9.516;2023-07-29T00:52:05;0.40;;;0.40;;
47812;SDS011;34221;45.296;9.516;2023-07-29T00:52:20;0.80;;;0.60;;
47812;SDS011;34221;45.296;9.516;2023-07-29T00:52:35;0.93;;;0.70;;
47812;SDS011;34221;45.296;9.516;2023-07-29T00:52:50;0.70;;;0.60;;
47812;SDS011;34221;45.296;9.516;2023-07-29T00:53:05;0.70;;;0.50;;
47812;SDS011;34221;45.296;9.516;2023-07-29T00:53:20;0.70;;;0.50;;
47812;SDS011;34221;45.296;9.516;2023-07-29T00:53:37;0.88;;;0.60;;
47812;SDS011;34221;45.296;9.516;2023-07-29T00:53:52;0.70;;;0.60;;
47812;SDS011;34221;45.296;9.516;2023-07-29T00:54:07;0.65;;;0.60;;
47812;SDS011;34221;45.296;9.516;2023-07-29T00:54:22;0.63;;;0.60;;
47812;SDS011;34221;45.296;9.516;2023-07-29T00:54:39;0.50;;;0.50;;
47812;SDS011;34221;45.296;9.516;2023-07-29T00:54:55;0.93;;;0.70;;
47812;SDS011;34221;45.296;9.516;2023-07-29T00:55:09;1.02;;;0.70;;
47812;SDS011;34221;45.296;9.516;2023-07-29T00:55:25;0.93;;;0.70;;
47812;SDS011;34221;45.296;9.516;2023-07-29T00:55:41;0.90;;;0.73;;
47812;SDS011;34221;45.296;9.516;2023-07-29T00:55:57;0.70;;;0.68;;
47812;SDS011;34221;45.296;9.516;2023-07-29T00:56:12;0.77;;;0.65;;
47812;SDS011;34221;45.296;9.516;2023-07-29T00:56:27;0.63;;;0.60;;
47812;SDS011;34221;45.296;9.516;2023-07-29T00:56:42;0.52;;;0.50;;
47812;SDS011;34221;45.296;9.516;2023-07-29T00:56:57;0.60;;;0.60;;
47812;SDS011;34221;45.296;9.516;2023-07-29T00:57:12;0.73;;;0.63;;
47812;SDS011;34221;45.296;9.516;2023-07-29T00:57:30;1.40;;;0.90;;
47812;SDS011;34221;45.296;9.516;2023-07-29T00:57:47;1.30;;;0.85;;
47812;SDS011;34221;45.296;9.516;2023-07-29T00:58:03;0.90;;;0.70;;
47812;SDS011;34221;45.296;9.516;2023-07-29T00:58:21;0.90;;;0.60;;
47812;SDS011;34221;45.296;9.516;2023-07-29T00:58:36;0.80;;;0.60;;
47812;SDS011;34221;45.296;9.516;2023-07-29T00:58:51;0.73;;;0.60;;
47812;SDS011;34221;45.296;9.516;2023-07-29T00:59:12;0.65;;;0.65;;
47812;SDS011;34221;45.296;9.516;2023-07-29T00:59:27;0.80;;;0.70;;
47812;SDS011;34221;45.296;9.516;2023-07-29T00:59:46;1.02;;;0.68;;
47812;SDS011;34221;45.296;9.516;2023-07-29T01:00:02;0.70;;;0.50;;
47812;SDS011;34221;45.296;9.516;2023-07-29T01:00:20;0.60;;;0.57;;
47812;SDS011;34221;45.296;9.516;2023-07-29T01:00:36;0.63;;;0.60;;
47812;SDS011;34221;45.296;9.516;2023-07-29T01:00:52;0.80;;;0.65;;
47812;SDS011;34221;45.296;9.516;2023-07-29T01:01:09;1.08;;;0.80;;
47812;SDS011;34221;45.296;9.516;2023-07-29T01:01:24;0.90;;;0.70;;
47812;SDS011;34221;45.296;9.516;2023-07-29T01:01:39;0.77;;;0.70;;
47812;SDS011;34221;45.296;9.516;2023-07-29T01:01:54;1.05;;;0.80;;
47812;SDS011;34221;45.296;9.516;2023-07-29T01:02:09;1.03;;;0.70;;
47812;SDS011;34221;45.296;9.516;2023-07-29T01:02:24;0.82;;;0.70;;
47812;SDS011;34221;45.296;9.516;2023-07-29T01:02:41;0.82;;;0.80;;
47812;SDS011;34221;45.296;9.516;2023-07-29T01:02:57;0.73;;;0.63;;
47812;SDS011;34221;45.296;9.516;2023-07-29T01:03:13;0.68;;;0.60;;
47812;SDS011;34221;45.296;9.516;2023-07-29T01:03:29;0.90;;;0.70;;
47812;SDS011;34221;45.296;9.516;2023-07-29T01:03:44;0.88;;;0.65;;
47812;SDS011;34221;45.296;9.516;2023-07-29T01:03:59;0.60;;;0.60;;
47812;SDS011;34221;45.296;9.516;2023-07-29T01:04:14;0.60;;;0.60;;
47812;SDS011;34221;45.296;9.516;2023-07-29T01:04:29;0.80;;;0.70;;
47812;SDS011;34221;45.296;9.516;2023-07-29T01:04:45;0.77;;;0.57;;
47812;SDS011;34221;45.296;9.516;2023-07-29T01:05:06;0.52;;;0.50;;
47812;SDS011;34221;45.296;9.516;2023-07-29T01:05:21;0.52;;;0.52;;
47812;SDS011;34221;45.296;9.516;2023-07-29T01:05:46;0.60;;;0.55;;
47812;SDS011;34221;45.296;9.516;2023-07-29T01:06:41;0.80;;;0.60;;
47812;SDS011;34221;45.296;9.516;2023-07-29T01:07:56;0.65;;;0.63;;
47812;SDS011;34221;45.296;9.516;2023-07-29T01:08:22;0.93;;;0.70;;
47812;SDS011;34221;45.296;9.516;2023-07-29T01:08:55;0.65;;;0.60;;
47812;SDS011;34221;45.296;9.516;2023-07-29T01:11:05;0.60;;;0.60;;
47812;SDS011;34221;45.296;9.516;2023-07-29T01:13:10;0.85;;;0.70;;
47812;SDS011;34221;45.296;9.516;2023-07-29T01:13:44;0.73;;;0.60;;
47812;SDS011;34221;45.296;9.516;2023-07-29T01:14:08;0.70;;;0.70;;
47812;SDS011;34221;45.296;9.516;2023-07-29T01:14:58;0.57;;;0.57;;
47812;SDS011;34221;45.296;9.516;2023-07-29T01:15:33;0.95;;;0.65;;
47812;SDS011;34221;45.296;9.516;2023-07-29T01:16:11;0.65;;;0.57;;
47812;SDS011;34221;45.296;9.516;2023-07-29T01:16:59;0.80;;;0.60;;
47812;SDS011;34221;45.296;9.516;2023-07-29T01:17:22;0.98;;;0.70;;
47812;SDS011;34221;45.296;9.516;2023-07-29T01:17:48;0.95;;;0.75;;
47812;SDS011;34221;45.296;9.516;2023-07-29T01:18:26;0.57;;;0.55;;
47812;SDS011;34221;45.296;9.516;2023-07-29T01:18:49;0.60;;;0.55;;
47812;SDS011;34221;45.296;9.516;2023-07-29T01:19:08;0.73;;;0.60;;
47812;SDS011;34221;45.296;9.516;2023-07-29T01:20:29;0.98;;;0.60;;
47812;SDS011;34221;45.296;9.516;2023-07-29T01:20:47;0.60;;;0.50;;
47812;SDS011;34221;45.296;9.516;2023-07-29T01:21:07;0.60;;;0.60;;
47812;SDS011;34221;45.296;9.516;2023-07-29T01:21:23;0.70;;;0.60;;
47812;SDS011;34221;45.296;9.516;2023-07-29T01:21:41;0.95;;;0.65;;
47812;SDS011;34221;45.296;9.516;2023-07-29T01:21:56;0.90;;;0.70;;
47812;SDS011;34221;45.296;9.516;2023-07-29T01:22:12;0.88;;;0.70;;
47812;SDS011;34221;45.296;9.516;2023-07-29T01:22:28;1.00;;;0.60;;
47812;SDS011;34221;45.296;9.516;2023-07-29T01:22:45;0.70;;;0.55;;
47812;SDS011;34221;45.296;9.516;2023-07-29T01:23:01;0.60;;;0.60;;
47812;SDS011;34221;45.296;9.516;2023-07-29T01:23:16;0.75;;;0.65;;
47812;SDS011;34221;45.296;9.516;2023-07-29T01:23:38;0.65;;;0.60;;
47812;SDS011;34221;45.296;9.516;2023-07-29T01:23:53;0.50;;;0.50;;
47812;SDS011;34221;45.296;9.516;2023-07-29T01:24:13;0.47;;;0.47;;
47812;SDS011;34221;45.296;9.516;2023-07-29T01:24:28;0.60;;;0.50;;
47812;SDS011;34221;45.296;9.516;2023-07-29T01:24:43;0.77;;;0.60;;
47812;SDS011;34221;45.296;9.516;2023-07-29T01:24:58;0.88;;;0.60;;
47812;SDS011;34221;45.296;9.516;2023-07-29T01:25:13;0.65;;;0.60;;
47812;SDS011;34221;45.296;9.516;2023-07-29T01:25:28;0.60;;;0.60;;
47812;SDS011;34221;45.296;9.516;2023-07-29T01:25:43;0.57;;;0.50;;
47812;SDS011;34221;45.296;9.516;2023-07-29T01:26:00;0.90;;;0.70;;
47812;SDS011;34221;45.296;9.516;2023-07-29T01:26:16;1.20;;;1.00;;
47812;SDS011;34221;45.296;9.516;2023-07-29T01:26:31;1.02;;;0.80;;
47812;SDS011;34221;45.296;9.516;2023-07-29T01:26:47;0.68;;;0.60;;
47812;SDS011;34221;45.296;9.516;2023-07-29T01:27:02;0.50;;;0.50;;
47812;SDS011;34221;45.296;9.516;2023-07-29T01:27:19;0.70;;;0.68;;
47812;SDS011;34221;45.296;9.516;2023-07-29T01:27:34;1.15;;;0.73;;
47812;SDS011;34221;45.296;9.516;2023-07-29T01:27:49;0.88;;;0.60;;
47812;SDS011;34221;45.296;9.516;2023-07-29T01:28:05;0.60;;;0.60;;
47812;SDS011;34221;45.296;9.516;2023-07-29T01:28:21;0.60;;;0.60;;
47812;SDS011;34221;45.296;9.516;2023-07-29T01:28:36;0.50;;;0.50;;
47812;SDS011;34221;45.296;9.516;2023-07-29T01:28:51;0.63;;;0.63;;
47812;SDS011;34221;45.296;9.516;2023-07-29T01:29:06;0.70;;;0.65;;
47812;SDS011;34221;45.296;9.516;2023-07-29T01:29:21;0.80;;;0.60;;
47812;SDS011;34221;45.296;9.516;2023-07-29T01:29:36;0.95;;;0.68;;
47812;SDS011;34221;45.296;9.516;2023-07-29T01:29:51;0.82;;;0.60;;
47812;SDS011;34221;45.296;9.516;2023-07-29T01:30:10;0.80;;;0.70;;
47812;SDS011;34221;45.296;9.516;2023-07-29T01:30:29;0.88;;;0.77;;
47812;SDS011;34221;45.296;9.516;2023-07-29T01:31:07;0.93;;;0.55;;
47812;SDS011;34221;45.296;9.516;2023-07-29T01:31:37;1.25;;;0.82;;
47812;SDS011;34221;45.296;9.516;2023-07-29T01:32:00;0.60;;;0.60;;
47812;SDS011;34221;45.296;9.516;2023-07-29T01:33:30;0.90;;;0.70;;
47812;SDS011;34221;45.296;9.516;2023-07-29T01:34:13;0.88;;;0.80;;
47812;SDS011;34221;45.296;9.516;2023-07-29T01:34:56;0.63;;;0.50;;
47812;SDS011;34221;45.296;9.516;2023-07-29T01:35:39;0.60;;;0.60;;
47812;SDS011;34221;45.296;9.516;2023-07-29T01:36:06;0.60;;;0.60;;
47812;SDS011;34221;45.296;9.516;2023-07-29T01:36:29;0.85;;;0.70;;
47812;SDS011;34221;45.296;9.516;2023-07-29T01:36:48;0.88;;;0.70;;
47812;SDS011;34221;45.296;9.516;2023-07-29T01:37:05;0.73;;;0.70;;
47812;SDS011;34221;45.296;9.516;2023-07-29T01:37:26;0.70;;;0.60;;
47812;SDS011;34221;45.296;9.516;2023-07-29T01:37:47;0.77;;;0.55;;
47812;SDS011;34221;45.296;9.516;2023-07-29T01:38:18;0.90;;;0.73;;
47812;SDS011;34221;45.296;9.516;2023-07-29T01:38:40;1.13;;;0.80;;
47812;SDS011;34221;45.296;9.516;2023-07-29T01:38:57;1.08;;;0.80;;
47812;SDS011;34221;45.296;9.516;2023-07-29T01:39:14;0.90;;;0.70;;
47812;SDS011;34221;45.296;9.516;2023-07-29T01:39:32;0.70;;;0.68;;
47812;SDS011;34221;45.296;9.516;2023-07-29T01:39:52;0.65;;;0.63;;
47812;SDS011;34221;45.296;9.516;2023-07-29T01:40:12;0.50;;;0.50;;
47812;SDS011;34221;45.296;9.516;2023-07-29T01:40:27;0.60;;;0.60;;
47812;SDS011;34221;45.296;9.516;2023-07-29T01:40:42;0.60;;;0.60;;
47812;SDS011;34221;45.296;9.516;2023-07-29T01:41:17;0.80;;;0.70;;
47812;SDS011;34221;45.296;9.516;2023-07-29T01:41:32;0.95;;;0.77;;
47812;SDS011;34221;45.296;9.516;2023-07-29T01:41:48;0.80;;;0.70;;
47812;SDS011;34221;45.296;9.516;2023-07-29T01:42:05;0.77;;;0.63;;
47812;SDS011;34221;45.296;9.516;2023-07-29T01:42:21;0.80;;;0.70;;
47812;SDS011;34221;45.296;9.516;2023-07-29T01:42:38;0.60;;;0.57;;
47812;SDS011;34221;45.296;9.516;2023-07-29T01:42:53;0.98;;;0.82;;
47812;SDS011;34221;45.296;9.516;2023-07-29T01:43:09;1.20;;;1.00;;
47812;SDS011;34221;45.296;9.516;2023-07-29T01:43:25;0.80;;;0.80;;
47812;SDS011;34221;45.296;9.516;2023-07-29T01:43:41;0.73;;;0.60;;
47812;SDS011;34221;45.296;9.516;2023-07-29T01:43:58;0.93;;;0.70;;
47812;SDS011;34221;45.296;9.516;2023-07-29T01:44:13;0.73;;;0.60;;
47812;SDS011;34221;45.296;9.516;2023-07-29T01:44:29;0.80;;;0.70;;
47812;SDS011;34221;45.296;9.516;2023-07-29T01:44:44;0.83;;;0.70;;
47812;SDS011;34221;45.296;9.516;2023-07-29T01:44:59;0.80;;;0.63;;
47812;SDS011;34221;45.296;9.516;2023-07-29T01:45:14;0.60;;;0.60;;
47812;SDS011;34221;45.296;9.516;2023-07-29T01:45:29;0.70;;;0.70;;
47812;SDS011;34221;45.296;9.516;2023-07-29T01:45:47;1.05;;;0.93;;
47812;SDS011;34221;45.296;9.516;2023-07-29T01:46:02;1.20;;;0.97;;
47812;SDS011;34221;45.296;9.516;2023-07-29T01:46:16;1.30;;;0.98;;
47812;SDS011;34221;45.296;9.516;2023-07-29T01:46:33;1.23;;;0.95;;
47812;SDS011;34221;45.296;9.516;2023-07-29T01:46:48;1.00;;;0.70;;
47812;SDS011;34221;45.296;9.516;2023-07-29T01:47:04;1.10;;;0.80;;
47812;SDS011;34221;45.296;9.516;2023-07-29T01:47:20;0.80;;;0.80;;
47812;SDS011;34221;45.296;9.516;2023-07-29T01:47:36;0.70;;;0.65;;
47812;SDS011;34221;45.296;9.516;2023-07-29T01:47:54;1.15;;;0.80;;
47812;SDS011;34221;45.296;9.516;2023-07-29T01:48:09;0.90;;;0.70;;
47812;SDS011;34221;45.296;9.516;2023-07-29T01:48:24;0.90;;;0.73;;
47812;SDS011;34221;45.296;9.516;2023-07-29T01:48:40;1.00;;;0.80;;
47812;SDS011;34221;45.296;9.516;2023-07-29T01:48:55;1.08;;;0.90;;
47812;SDS011;34221;45.296;9.516;2023-07-29T01:49:10;0.93;;;0.80;;